createdAt,value
2023-03-19T00:01:51.257Z,10.80
2023-03-19T00:03:51.618Z,9.70
2023-03-19T00:05:51.904Z,9.70
2023-03-19T00:07:52.250Z,8.90
2023-03-19T00:09:52.511Z,9.90
2023-03-19T00:11:52.870Z,8.10
2023-03-19T00:13:53.135Z,9.70
2023-03-19T00:15:53.465Z,7.70
2023-03-19T00:17:53.755Z,8.40
2023-03-19T00:19:54.070Z,8.60
2023-03-19T00:21:54.372Z,8.90
2023-03-19T00:23:54.708Z,8.50
2023-03-19T00:25:54.944Z,8.20
2023-03-19T00:27:55.304Z,9.30
2023-03-19T00:29:55.583Z,10.00
2023-03-19T00:31:55.944Z,12.10
2023-03-19T00:33:56.216Z,9.00
2023-03-19T00:35:56.588Z,7.20
2023-03-19T00:37:56.841Z,10.20
2023-03-19T00:39:57.132Z,7.30
2023-03-19T00:41:57.464Z,8.70
2023-03-19T00:43:57.781Z,7.90
2023-03-19T00:45:58.150Z,7.00
2023-03-19T00:47:58.519Z,7.10
2023-03-19T00:49:58.766Z,8.30
2023-03-19T00:51:59.080Z,6.30
2023-03-19T00:53:59.418Z,5.70
2023-03-19T00:55:59.733Z,7.20
2023-03-19T00:58:00.003Z,5.90
2023-03-19T01:00:00.385Z,8.70
2023-03-19T01:02:00.716Z,6.30
2023-03-19T01:04:01.026Z,8.40
2023-03-19T01:06:01.309Z,6.20
2023-03-19T01:08:01.686Z,10.10
2023-03-19T01:10:01.961Z,5.90
2023-03-19T01:12:02.276Z,6.80
2023-03-19T01:14:02.663Z,7.30
2023-03-19T01:16:02.937Z,6.30
2023-03-19T01:18:03.338Z,6.90
2023-03-19T01:20:03.569Z,5.90
2023-03-19T01:22:03.878Z,7.30
2023-03-19T01:24:04.259Z,7.30
2023-03-19T01:26:09.433Z,7.70
2023-03-19T01:28:09.740Z,5.40
2023-03-19T01:30:10.039Z,8.70
2023-03-19T01:32:10.367Z,9.00
2023-03-19T01:34:10.670Z,6.60
2023-03-19T01:36:10.936Z,9.20
2023-03-19T01:38:12.045Z,6.50
2023-03-19T01:40:12.349Z,6.40
2023-03-19T01:42:12.628Z,7.20
2023-03-19T01:44:12.953Z,7.30
2023-03-19T01:46:13.302Z,6.40
2023-03-19T01:48:13.563Z,9.10
2023-03-19T01:50:13.902Z,10.70
2023-03-19T01:52:14.198Z,9.20
2023-03-19T01:54:14.587Z,10.20
2023-03-19T01:56:14.867Z,9.80
2023-03-19T01:58:15.172Z,9.50
2023-03-19T02:00:15.448Z,10.60
2023-03-19T02:02:15.725Z,10.80
2023-03-19T02:04:16.063Z,8.00
2023-03-19T02:06:16.370Z,7.70
2023-03-19T02:08:16.687Z,8.90
2023-03-19T02:10:17.015Z,9.70
2023-03-19T02:12:17.274Z,8.90
2023-03-19T02:14:18.111Z,9.70
2023-03-19T02:16:18.471Z,9.80
2023-03-19T02:18:18.784Z,9.00
2023-03-19T02:20:19.051Z,7.80
2023-03-19T02:22:19.402Z,9.30
2023-03-19T02:24:19.657Z,9.10
2023-03-19T02:26:19.986Z,9.80
2023-03-19T02:28:20.268Z,11.00
2023-03-19T02:30:20.581Z,8.40
2023-03-19T02:32:20.852Z,8.40
2023-03-19T02:34:21.226Z,9.10
2023-03-19T02:36:21.469Z,7.40
2023-03-19T02:38:21.792Z,8.00
2023-03-19T02:40:23.052Z,8.90
2023-03-19T02:42:23.311Z,9.10
2023-03-19T02:44:23.640Z,9.30
2023-03-19T02:46:23.970Z,9.20
2023-03-19T02:48:24.219Z,9.40
2023-03-19T02:50:24.565Z,8.20
2023-03-19T02:52:24.856Z,7.70
2023-03-19T02:54:25.199Z,11.60
2023-03-19T02:56:25.475Z,11.30
2023-03-19T02:58:25.789Z,11.30
2023-03-19T03:00:26.212Z,9.60
2023-03-19T03:02:26.659Z,11.40
2023-03-19T03:04:26.955Z,8.90
2023-03-19T03:06:27.250Z,10.60
2023-03-19T03:08:27.526Z,7.70
2023-03-19T03:10:27.857Z,8.80
2023-03-19T03:12:28.118Z,8.20
2023-03-19T03:14:28.438Z,8.80
2023-03-19T03:16:28.877Z,9.40
2023-03-19T03:18:29.143Z,8.10
2023-03-19T03:20:29.435Z,7.20
2023-03-19T03:22:29.763Z,9.30
2023-03-19T03:24:30.030Z,8.60
2023-03-19T03:26:30.343Z,8.70
2023-03-19T03:28:30.622Z,8.50
2023-03-19T03:30:31.058Z,9.40
2023-03-19T03:32:31.435Z,8.10
2023-03-19T03:34:31.744Z,9.50
2023-03-19T03:36:32.503Z,8.20
2023-03-19T03:38:32.788Z,9.80
2023-03-19T03:40:33.412Z,9.00
2023-03-19T03:42:33.842Z,7.90
2023-03-19T03:44:34.143Z,7.50
2023-03-19T03:46:34.427Z,7.90
2023-03-19T03:48:34.758Z,7.20
2023-03-19T03:50:40.591Z,7.30
2023-03-19T03:52:41.171Z,7.30
2023-03-19T03:54:41.468Z,9.50
2023-03-19T03:56:41.730Z,8.70
2023-03-19T03:58:42.070Z,10.70
2023-03-19T04:00:42.367Z,9.00
2023-03-19T04:02:42.703Z,6.50
2023-03-19T04:04:43.018Z,8.60
2023-03-19T04:06:43.307Z,8.40
2023-03-19T04:08:43.586Z,7.30
2023-03-19T04:10:43.962Z,9.00
2023-03-19T04:12:44.222Z,8.40
2023-03-19T04:14:44.516Z,8.60
2023-03-19T04:16:44.823Z,8.60
2023-03-19T04:18:45.172Z,9.10
2023-03-19T04:20:45.506Z,7.20
2023-03-19T04:22:45.804Z,8.50
2023-03-19T04:24:46.112Z,7.60
2023-03-19T04:26:46.382Z,9.80
2023-03-19T04:28:46.685Z,8.20
2023-03-19T04:30:47.058Z,7.10
2023-03-19T04:32:47.431Z,7.60
2023-03-19T04:34:47.826Z,8.20
2023-03-19T04:36:48.157Z,8.20
2023-03-19T04:38:48.503Z,6.60
2023-03-19T04:40:48.767Z,7.30
2023-03-19T04:42:49.099Z,7.80
2023-03-19T04:44:49.602Z,9.10
2023-03-19T04:46:49.921Z,7.50
2023-03-19T04:48:50.200Z,7.50
2023-03-19T04:50:50.504Z,9.60
2023-03-19T04:52:50.858Z,9.40
2023-03-19T04:54:51.166Z,9.10
2023-03-19T04:56:51.447Z,9.50
2023-03-19T04:58:51.778Z,8.90
2023-03-19T05:00:52.089Z,9.20
2023-03-19T05:02:52.372Z,8.60
2023-03-19T05:04:52.681Z,8.00
2023-03-19T05:06:52.961Z,8.90
2023-03-19T05:08:53.266Z,9.10
2023-03-19T05:10:53.594Z,8.80
2023-03-19T05:12:53.877Z,8.60
2023-03-19T05:14:54.153Z,9.50
2023-03-19T05:16:54.459Z,7.90
2023-03-19T05:18:54.773Z,7.50
2023-03-19T05:20:55.101Z,8.70
2023-03-19T05:22:55.411Z,10.50
2023-03-19T05:24:55.698Z,10.70
2023-03-19T05:26:56.019Z,9.80
2023-03-19T05:28:56.296Z,7.80
2023-03-19T05:30:56.657Z,8.70
2023-03-19T05:32:57.047Z,7.70
2023-03-19T05:34:57.373Z,6.90
2023-03-19T05:36:57.618Z,7.80
2023-03-19T05:38:57.925Z,8.50
2023-03-19T05:40:58.289Z,8.20
2023-03-19T05:42:58.547Z,7.50
2023-03-19T05:44:58.857Z,9.10
2023-03-19T05:46:59.192Z,11.30
2023-03-19T05:48:59.558Z,13.20
2023-03-19T05:50:59.837Z,9.00
2023-03-19T05:53:00.187Z,8.50
2023-03-19T05:55:00.457Z,8.70
2023-03-19T05:57:01.463Z,8.10
2023-03-19T05:59:01.770Z,7.50
2023-03-19T06:01:02.118Z,7.80
2023-03-19T06:03:02.488Z,8.80
2023-03-19T06:05:02.863Z,10.90
2023-03-19T06:07:03.160Z,9.90
2023-03-19T06:09:03.468Z,8.20
2023-03-19T06:11:03.769Z,9.70
2023-03-19T06:13:04.080Z,10.80
2023-03-19T06:15:04.519Z,7.60
2023-03-19T06:17:04.800Z,9.10
2023-03-19T06:19:05.131Z,7.70
2023-03-19T06:21:05.436Z,8.80
2023-03-19T06:23:05.785Z,8.20
2023-03-19T06:25:06.041Z,8.30
2023-03-19T06:27:06.361Z,8.10
2023-03-19T06:29:06.664Z,8.00
2023-03-19T06:31:07.131Z,6.10
2023-03-19T06:33:07.421Z,9.90
2023-03-19T06:35:07.713Z,10.40
2023-03-19T06:37:08.035Z,9.50
2023-03-19T06:39:08.320Z,8.00
2023-03-19T06:41:08.631Z,7.10
2023-03-19T06:43:08.968Z,9.60
2023-03-19T06:45:09.301Z,8.20
2023-03-19T06:47:09.639Z,6.30
2023-03-19T06:49:10.000Z,9.40
2023-03-19T06:51:10.340Z,9.00
2023-03-19T06:53:10.617Z,8.10
2023-03-19T06:55:10.912Z,6.30
2023-03-19T06:57:11.246Z,7.20
2023-03-19T06:59:11.648Z,7.40
2023-03-19T07:01:12.030Z,7.70
2023-03-19T07:03:12.334Z,6.30
2023-03-19T07:05:12.637Z,6.30
2023-03-19T07:07:12.960Z,7.30
2023-03-19T07:09:13.279Z,7.00
2023-03-19T07:11:13.634Z,8.20
2023-03-19T07:13:13.936Z,7.50
2023-03-19T07:15:14.195Z,4.80
2023-03-19T07:17:17.449Z,8.80
2023-03-19T07:19:18.559Z,6.40
2023-03-19T07:21:18.849Z,6.50
2023-03-19T07:24:00.746Z,6.50
2023-03-19T07:26:01.092Z,5.00
2023-03-19T07:28:01.377Z,4.80
2023-03-19T07:30:01.718Z,7.60
2023-03-19T07:32:02.193Z,8.90
2023-03-19T07:34:02.591Z,7.40
2023-03-19T07:36:02.939Z,7.80
2023-03-19T07:38:03.229Z,9.40
2023-03-19T07:40:03.571Z,8.20
2023-03-19T07:42:03.914Z,6.50
2023-03-19T07:44:04.213Z,8.00
2023-03-19T07:46:04.537Z,6.20
2023-03-19T07:48:04.866Z,6.90
2023-03-19T07:50:05.154Z,6.10
2023-03-19T07:52:05.458Z,7.20
2023-03-19T07:54:05.787Z,9.90
2023-03-19T07:56:06.058Z,6.10
2023-03-19T07:58:06.389Z,7.70
2023-03-19T08:00:07.301Z,7.70
2023-03-19T08:02:07.662Z,8.30
2023-03-19T08:04:08.874Z,5.60
2023-03-19T08:06:09.178Z,7.30
2023-03-19T08:08:09.487Z,5.60
2023-03-19T08:10:09.752Z,8.30
2023-03-19T08:12:10.080Z,8.90
2023-03-19T08:14:10.376Z,7.20
2023-03-19T08:16:10.712Z,4.50
2023-03-19T08:18:11.019Z,6.80
2023-03-19T08:20:11.475Z,5.70
2023-03-19T08:22:11.781Z,4.60
2023-03-19T08:24:12.081Z,5.40
2023-03-19T08:26:12.407Z,6.70
2023-03-19T08:28:12.727Z,8.40
2023-03-19T08:30:13.008Z,7.70
2023-03-19T08:32:13.336Z,8.40
2023-03-19T08:34:13.662Z,8.90
2023-03-19T08:36:14.019Z,6.00
2023-03-19T08:38:14.368Z,7.50
2023-03-19T08:40:14.671Z,8.50
2023-03-19T08:42:14.989Z,7.10
2023-03-19T08:44:15.327Z,7.30
2023-03-19T08:46:15.689Z,6.10
2023-03-19T08:48:16.002Z,7.20
2023-03-19T08:50:16.270Z,7.40
2023-03-19T08:52:16.656Z,7.40
2023-03-19T08:54:17.005Z,6.90
2023-03-19T08:56:17.306Z,8.50
2023-03-19T08:58:17.720Z,7.40
2023-03-19T09:00:17.995Z,6.70
2023-03-19T09:02:18.331Z,4.90
2023-03-19T09:04:18.610Z,5.70
2023-03-19T09:06:18.999Z,4.00
2023-03-19T09:08:19.277Z,4.90
2023-03-19T09:10:19.616Z,4.20
2023-03-19T09:12:19.937Z,3.70
2023-03-19T09:14:20.204Z,3.30
2023-03-19T09:16:20.583Z,5.70
2023-03-19T09:18:20.886Z,4.70
2023-03-19T09:20:21.211Z,4.30
2023-03-19T09:22:21.568Z,4.50
2023-03-19T09:24:21.898Z,4.90
2023-03-19T09:26:22.287Z,4.40
2023-03-19T09:28:22.549Z,4.40
2023-03-19T09:30:22.970Z,3.70
2023-03-19T09:32:23.283Z,4.50
2023-03-19T09:34:23.604Z,5.20
2023-03-19T09:36:23.925Z,2.70
2023-03-19T09:38:24.258Z,5.80
2023-03-19T09:40:24.554Z,4.70
2023-03-19T09:42:24.908Z,5.10
2023-03-19T09:44:25.228Z,4.50
2023-03-19T09:46:25.684Z,4.80
2023-03-19T09:48:25.979Z,5.70
2023-03-19T09:50:26.272Z,5.10
2023-03-19T09:52:26.575Z,4.50
2023-03-19T09:54:26.912Z,6.10
2023-03-19T09:56:27.251Z,4.80
2023-03-19T09:58:27.662Z,3.90
2023-03-19T10:00:28.026Z,5.40
2023-03-19T10:02:28.366Z,3.40
2023-03-19T10:04:28.727Z,5.40
2023-03-19T10:06:29.086Z,6.10
2023-03-19T10:08:29.393Z,4.00
2023-03-19T10:10:29.776Z,7.40
2023-03-19T10:12:30.065Z,4.00
2023-03-19T10:14:30.388Z,3.60
2023-03-19T10:16:30.783Z,5.20
2023-03-19T10:18:31.153Z,3.40
2023-03-19T10:20:31.433Z,4.60
2023-03-19T10:22:31.905Z,3.60
2023-03-19T10:24:32.355Z,3.50
2023-03-19T10:26:32.643Z,3.00
2023-03-19T10:28:33.363Z,3.20
2023-03-19T10:30:33.725Z,4.20
2023-03-19T10:32:34.124Z,4.90
2023-03-19T10:34:34.440Z,3.70
2023-03-19T10:36:34.787Z,6.10
2023-03-19T10:38:35.132Z,4.40
2023-03-19T10:40:35.462Z,4.60
2023-03-19T10:42:35.817Z,4.40
2023-03-19T10:44:36.182Z,5.20
2023-03-19T10:46:36.491Z,3.60
2023-03-19T10:48:36.858Z,3.70
2023-03-19T10:50:37.173Z,4.40
2023-03-19T10:52:37.513Z,4.50
2023-03-19T10:54:37.803Z,3.10
2023-03-19T10:56:38.112Z,5.70
2023-03-19T10:58:38.434Z,4.60
2023-03-19T11:00:38.749Z,6.40
2023-03-19T11:02:39.249Z,3.90
2023-03-19T11:04:39.492Z,3.60
2023-03-19T11:06:39.851Z,5.40
2023-03-19T11:08:40.159Z,4.40
2023-03-19T11:10:40.508Z,4.60
2023-03-19T11:12:40.809Z,4.90
2023-03-19T11:14:41.105Z,5.40
2023-03-19T11:16:41.527Z,3.20
2023-03-19T11:18:41.800Z,5.80
2023-03-19T11:20:42.164Z,5.20
2023-03-19T11:22:42.415Z,3.40
2023-03-19T11:24:42.730Z,3.00
2023-03-19T11:26:43.017Z,4.30
2023-03-19T11:28:43.343Z,3.10
2023-03-19T11:30:43.846Z,3.10
2023-03-19T11:32:44.232Z,3.70
2023-03-19T11:34:44.542Z,7.50
2023-03-19T11:36:44.871Z,4.90
2023-03-19T11:38:45.141Z,6.30
2023-03-19T11:40:45.446Z,5.90
2023-03-19T11:42:45.740Z,3.30
2023-03-19T11:44:46.112Z,5.60
2023-03-19T11:46:46.650Z,4.10
2023-03-19T11:48:47.011Z,6.10
2023-03-19T11:50:48.368Z,3.90
2023-03-19T11:52:48.653Z,6.00
2023-03-19T11:54:48.974Z,5.50
2023-03-19T11:56:49.433Z,4.30
2023-03-19T11:58:49.739Z,3.80
2023-03-19T12:00:50.367Z,6.30
2023-03-19T12:02:50.673Z,4.60
2023-03-19T12:04:55.855Z,4.40
2023-03-19T12:06:56.155Z,4.80
2023-03-19T12:08:56.441Z,5.90
2023-03-19T12:10:56.700Z,6.40
2023-03-19T12:12:57.125Z,5.30
2023-03-19T12:14:57.380Z,5.40
2023-03-19T12:16:58.546Z,4.70
2023-03-19T12:18:59.035Z,3.50
2023-03-19T12:20:59.348Z,4.90
2023-03-19T12:22:59.660Z,4.70
2023-03-19T12:25:00.030Z,5.00
2023-03-19T12:27:00.284Z,5.70
2023-03-19T12:29:00.951Z,6.10
2023-03-19T12:31:01.599Z,3.40
2023-03-19T12:33:01.979Z,4.10
2023-03-19T12:35:02.478Z,3.60
2023-03-19T12:37:02.735Z,2.70
2023-03-19T12:39:03.065Z,2.90
2023-03-19T12:41:03.331Z,4.20
2023-03-19T12:43:03.667Z,4.70
2023-03-19T12:45:03.936Z,2.90
2023-03-19T12:47:04.272Z,4.10
2023-03-19T12:49:04.570Z,4.00
2023-03-19T12:51:04.871Z,4.20
2023-03-19T12:53:05.152Z,5.70
2023-03-19T12:55:05.589Z,4.80
2023-03-19T12:57:05.826Z,4.90
2023-03-19T12:59:06.161Z,3.10
2023-03-19T13:01:06.558Z,3.00
2023-03-19T13:03:07.125Z,4.50
2023-03-19T13:05:07.478Z,3.00
2023-03-19T13:07:07.868Z,2.80
2023-03-19T13:09:08.198Z,3.40
2023-03-19T13:11:08.481Z,3.50
2023-03-19T13:13:08.768Z,3.00
2023-03-19T13:15:09.436Z,4.10
2023-03-19T13:17:10.612Z,3.90
2023-03-19T13:19:11.104Z,3.40
2023-03-19T13:21:11.569Z,3.30
2023-03-19T13:23:11.799Z,4.80
2023-03-19T13:25:12.140Z,2.80
2023-03-19T13:27:12.580Z,3.70
2023-03-19T13:29:12.912Z,4.00
2023-03-19T13:31:13.413Z,5.10
2023-03-19T13:33:13.794Z,4.50
2023-03-19T13:35:14.154Z,4.30
2023-03-19T13:37:14.460Z,4.50
2023-03-19T13:39:14.774Z,5.20
2023-03-19T13:41:15.060Z,4.40
2023-03-19T13:43:27.413Z,7.20
2023-03-19T13:45:20.582Z,4.30
2023-03-19T13:47:21.849Z,5.60
2023-03-19T13:49:22.238Z,4.90
2023-03-19T13:51:22.578Z,4.30
2023-03-19T13:53:22.862Z,3.90
2023-03-19T13:55:23.188Z,4.80
2023-03-19T13:57:23.447Z,4.80
2023-03-19T13:59:23.897Z,4.50
2023-03-19T14:01:24.128Z,3.20
2023-03-19T14:03:24.522Z,5.00
2023-03-19T14:05:24.828Z,6.10
2023-03-19T14:07:25.097Z,5.50
2023-03-19T14:09:25.432Z,5.00
2023-03-19T14:11:25.772Z,4.60
2023-03-19T14:13:26.865Z,6.20
2023-03-19T14:15:27.220Z,5.70
2023-03-19T14:18:09.258Z,4.40
2023-03-19T14:20:09.685Z,7.10
2023-03-19T14:22:09.994Z,4.70
2023-03-19T14:24:45.472Z,6.70
2023-03-19T14:26:15.433Z,5.30
2023-03-19T14:28:15.769Z,5.50
2023-03-19T14:30:16.121Z,5.00
2023-03-19T14:32:16.395Z,5.30
2023-03-19T14:34:16.743Z,5.10
2023-03-19T14:36:17.052Z,5.10
2023-03-19T14:38:17.365Z,6.30
2023-03-19T14:40:17.658Z,7.40
2023-03-19T14:42:59.498Z,6.20
2023-03-19T14:44:59.806Z,7.90
2023-03-19T14:47:00.162Z,4.90
2023-03-19T14:49:00.491Z,6.10
2023-03-19T14:51:00.766Z,5.60
2023-03-19T14:53:01.843Z,7.40
2023-03-19T14:55:02.285Z,5.90
2023-03-19T14:57:02.619Z,7.90
2023-03-19T14:59:02.881Z,7.20
2023-03-19T15:01:06.149Z,7.10
2023-03-19T15:03:06.376Z,6.90
2023-03-19T15:05:07.326Z,7.60
2023-03-19T15:07:07.656Z,5.70
2023-03-19T15:09:07.897Z,5.90
2023-03-19T15:11:10.113Z,6.50
2023-03-19T15:13:10.405Z,6.30
2023-03-19T15:15:10.713Z,8.70
2023-03-19T15:17:10.985Z,6.80
2023-03-19T15:19:13.130Z,5.10
2023-03-19T15:21:13.441Z,5.20
2023-03-19T15:23:26.363Z,4.00
2023-03-19T15:26:01.057Z,5.10
2023-03-19T15:28:04.457Z,5.30
2023-03-19T15:30:14.360Z,6.10
2023-03-19T15:32:10.815Z,5.80
2023-03-19T15:34:11.505Z,6.20
2023-03-19T15:36:11.810Z,4.00
2023-03-19T15:38:12.094Z,3.30
2023-03-19T15:40:12.336Z,5.50
2023-03-19T15:42:13.517Z,5.00
2023-03-19T15:44:13.751Z,9.00
2023-03-19T15:46:18.955Z,3.50
2023-03-19T15:48:19.255Z,5.00
2023-03-19T15:50:19.492Z,5.00
2023-03-19T15:52:19.734Z,5.20
2023-03-19T15:54:20.121Z,4.50
2023-03-19T15:56:20.358Z,4.80
2023-03-19T15:58:20.635Z,5.40
2023-03-19T16:00:20.893Z,5.50
2023-03-19T16:02:21.357Z,6.10
2023-03-19T16:04:21.721Z,7.60
2023-03-19T16:06:22.070Z,4.30
2023-03-19T16:08:22.331Z,4.30
2023-03-19T16:10:22.620Z,5.90
2023-03-19T16:12:22.896Z,5.30
2023-03-19T16:14:23.176Z,4.10
2023-03-19T16:16:23.680Z,3.30
2023-03-19T16:18:23.957Z,3.90
2023-03-19T16:20:24.259Z,4.30
2023-03-19T16:22:24.546Z,3.50
2023-03-19T16:24:24.809Z,4.90
2023-03-19T16:26:25.085Z,5.20
2023-03-19T16:28:25.317Z,3.90
2023-03-19T16:30:25.635Z,4.00
2023-03-19T16:32:25.860Z,6.00
2023-03-19T16:34:26.167Z,4.00
2023-03-19T16:36:26.455Z,3.20
2023-03-19T16:38:26.724Z,2.70
2023-03-19T16:40:27.032Z,3.20
2023-03-19T16:42:27.322Z,3.70
2023-03-19T16:44:29.337Z,4.50
2023-03-19T16:46:31.251Z,5.50
2023-03-19T16:48:31.561Z,5.10
2023-03-19T16:50:31.783Z,5.50
2023-03-19T16:52:32.065Z,7.90
2023-03-19T16:54:32.313Z,4.10
2023-03-19T16:56:32.592Z,6.30
2023-03-19T16:58:32.882Z,4.50
2023-03-19T17:01:15.298Z,3.50
2023-03-19T17:03:15.588Z,5.10
2023-03-19T17:05:15.916Z,4.40
2023-03-19T17:07:16.186Z,4.40
2023-03-19T17:09:16.489Z,3.90
2023-03-19T17:11:16.782Z,6.40
2023-03-19T17:13:17.168Z,5.70
2023-03-19T17:15:17.436Z,3.80
2023-03-19T17:17:17.698Z,4.20
2023-03-19T17:18:51.944Z,4.70
2023-03-19T17:20:52.213Z,6.30
2023-03-19T17:22:52.517Z,3.50
2023-03-19T17:24:53.065Z,5.40
2023-03-19T17:26:53.551Z,5.70
2023-03-19T17:28:53.886Z,6.20
2023-03-19T17:30:54.236Z,4.60
2023-03-19T17:32:54.523Z,3.70
2023-03-19T17:34:54.984Z,5.20
2023-03-19T17:36:55.303Z,4.20
2023-03-19T17:38:55.882Z,4.20
2023-03-19T17:40:56.191Z,4.90
2023-03-19T17:42:56.504Z,3.70
2023-03-19T17:44:56.738Z,2.80
2023-03-19T17:46:57.132Z,1.60
2023-03-19T17:48:57.443Z,1.90
2023-03-19T17:50:57.694Z,1.70
2023-03-19T17:52:58.003Z,1.40
2023-03-19T17:54:58.239Z,1.50
2023-03-19T17:56:58.562Z,2.40
2023-03-19T17:58:58.789Z,1.80
2023-03-19T18:00:59.193Z,2.50
2023-03-19T18:02:59.951Z,4.10
2023-03-19T18:05:00.221Z,3.50
2023-03-19T18:07:00.434Z,1.50
2023-03-19T18:09:01.030Z,2.10
2023-03-19T18:11:01.360Z,1.90
2023-03-19T18:13:01.633Z,1.40
2023-03-19T18:15:01.913Z,2.10
2023-03-19T18:17:02.190Z,1.70
2023-03-19T18:19:02.491Z,1.90
2023-03-19T18:21:02.780Z,1.60
2023-03-19T18:23:03.055Z,2.10
2023-03-19T18:25:03.336Z,1.90
2023-03-19T18:27:04.617Z,2.80
2023-03-19T18:28:24.177Z,2.30
2023-03-19T18:30:24.514Z,2.50
2023-03-19T18:32:24.832Z,2.20
2023-03-19T18:34:25.091Z,2.80
2023-03-19T18:36:25.366Z,2.50
2023-03-19T18:38:25.636Z,2.70
2023-03-19T18:40:25.923Z,2.60
2023-03-19T18:42:26.161Z,1.60
2023-03-19T18:44:26.436Z,1.70
2023-03-19T18:46:26.859Z,2.90
2023-03-19T18:48:27.168Z,4.50
2023-03-19T18:50:27.485Z,2.00
2023-03-19T18:52:27.745Z,3.20
2023-03-19T18:54:28.041Z,2.70
2023-03-19T18:56:28.264Z,2.30
2023-03-19T18:58:28.620Z,2.40
2023-03-19T19:00:28.856Z,2.40
2023-03-19T19:02:29.398Z,2.60
2023-03-19T19:04:30.131Z,2.60
2023-03-19T19:06:45.926Z,2.90
2023-03-19T19:08:35.625Z,2.90
2023-03-19T19:10:36.168Z,4.50
2023-03-19T19:12:41.039Z,4.30
2023-03-19T19:14:41.323Z,3.80
2023-03-19T19:16:41.706Z,5.00
2023-03-19T19:18:43.178Z,3.80
2023-03-19T19:20:43.698Z,4.00
2023-03-19T19:22:45.034Z,4.80
2023-03-19T19:24:45.542Z,4.90
2023-03-19T19:26:45.870Z,4.40
2023-03-19T19:28:46.144Z,4.40
2023-03-19T19:30:46.531Z,5.40
2023-03-19T19:32:46.989Z,5.20
2023-03-19T19:34:47.246Z,6.30
2023-03-19T19:36:47.531Z,5.60
2023-03-19T19:38:47.832Z,7.60
2023-03-19T19:40:48.078Z,5.10
2023-03-19T19:42:48.585Z,5.40
2023-03-19T19:44:48.984Z,6.20
2023-03-19T19:46:49.231Z,6.60
2023-03-19T19:48:49.644Z,5.00
2023-03-19T19:50:49.902Z,6.80
2023-03-19T19:52:50.303Z,3.90
2023-03-19T19:54:50.608Z,2.50
2023-03-19T19:56:50.846Z,2.20
2023-03-19T19:58:51.114Z,2.40
2023-03-19T20:01:02.860Z,3.90
2023-03-19T20:02:56.566Z,2.70
2023-03-19T20:04:57.131Z,3.90
2023-03-19T20:06:57.418Z,5.00
2023-03-19T20:08:57.730Z,3.40
2023-03-19T20:10:58.023Z,2.60
2023-03-19T20:12:58.326Z,3.70
2023-03-19T20:14:58.554Z,4.00
2023-03-19T20:16:58.969Z,3.50
2023-03-19T20:18:59.260Z,5.00
2023-03-19T20:20:59.711Z,5.70
2023-03-19T20:23:00.132Z,3.90
2023-03-19T20:25:00.419Z,5.20
2023-03-19T20:27:00.810Z,3.70
2023-03-19T20:29:01.051Z,4.10
2023-03-19T20:31:01.385Z,5.20
2023-03-19T20:33:01.759Z,5.20
2023-03-19T20:35:03.883Z,4.40
2023-03-19T20:37:04.501Z,4.70
2023-03-19T20:39:05.111Z,4.90
2023-03-19T20:42:05.723Z,5.70
2023-03-19T20:44:05.994Z,5.80
2023-03-19T20:46:06.357Z,5.70
2023-03-19T20:48:06.592Z,5.40
2023-03-19T20:50:06.889Z,5.00
2023-03-19T20:52:07.157Z,6.50
2023-03-19T20:54:07.447Z,6.50
2023-03-19T20:56:07.718Z,7.10
2023-03-19T20:58:08.015Z,6.40
2023-03-19T21:00:08.294Z,9.40
2023-03-19T21:02:08.547Z,9.20
2023-03-19T21:04:11.274Z,11.40
2023-03-19T21:06:13.392Z,13.30
2023-03-19T21:08:13.793Z,14.40
2023-03-19T21:10:14.213Z,13.90
2023-03-19T21:12:14.498Z,12.40
2023-03-19T21:14:14.795Z,12.70
2023-03-19T21:16:15.241Z,12.20
2023-03-19T21:18:15.600Z,9.60
2023-03-19T21:20:15.848Z,12.00
2023-03-19T21:22:16.156Z,11.70
2023-03-19T21:24:16.889Z,10.90
2023-03-19T21:26:17.440Z,13.30
2023-03-19T21:28:17.733Z,18.00
2023-03-19T21:30:18.039Z,19.00
2023-03-19T21:32:18.284Z,17.70
2023-03-19T21:34:18.599Z,16.50
2023-03-19T21:36:18.882Z,10.60
2023-03-19T21:38:19.627Z,10.30
2023-03-19T21:40:19.923Z,12.30
2023-03-19T21:42:20.185Z,10.20
2023-03-19T21:44:20.505Z,9.20
2023-03-19T21:46:24.832Z,10.80
2023-03-19T21:48:25.405Z,8.90
2023-03-19T21:50:25.671Z,8.00
2023-03-19T21:52:25.998Z,7.80
2023-03-19T21:54:26.244Z,8.00
2023-03-19T21:56:26.517Z,9.00
2023-03-19T21:58:26.736Z,7.40
2023-03-19T22:00:27.051Z,8.90
2023-03-19T22:02:27.380Z,7.90
2023-03-19T22:04:27.687Z,9.80
2023-03-19T22:06:27.956Z,10.00
2023-03-19T22:08:28.209Z,9.60
2023-03-19T22:10:28.487Z,10.60
2023-03-19T22:12:28.764Z,10.80
2023-03-19T22:14:29.044Z,9.70
2023-03-19T22:16:29.374Z,10.40
2023-03-19T22:18:29.714Z,7.90
2023-03-19T22:20:29.968Z,8.90
2023-03-19T22:22:30.246Z,8.80
2023-03-19T22:24:30.524Z,7.80
2023-03-19T22:26:30.827Z,7.80
2023-03-19T22:28:31.087Z,8.00
2023-03-19T22:30:36.224Z,8.20
2023-03-19T22:32:36.530Z,8.00
2023-03-19T22:34:36.815Z,9.50
2023-03-19T22:36:37.096Z,7.50
2023-03-19T22:38:37.302Z,8.90
2023-03-19T22:40:37.586Z,8.70
2023-03-19T22:42:37.871Z,8.70
2023-03-19T22:44:38.135Z,8.40
2023-03-19T22:46:38.354Z,9.10
2023-03-19T22:48:38.651Z,9.20
2023-03-19T22:50:38.926Z,8.90
2023-03-19T22:52:40.114Z,9.90
2023-03-19T22:54:40.369Z,7.90
2023-03-19T22:56:40.654Z,9.80
2023-03-19T22:58:40.913Z,8.70
2023-03-19T23:00:41.175Z,8.90
2023-03-19T23:02:41.436Z,8.60
2023-03-19T23:04:41.761Z,8.70
2023-03-19T23:06:42.085Z,8.70
2023-03-19T23:08:42.324Z,8.70
2023-03-19T23:10:42.594Z,7.90
2023-03-19T23:12:42.862Z,8.60
2023-03-19T23:14:43.114Z,7.80
2023-03-19T23:16:43.427Z,8.80
2023-03-19T23:18:43.692Z,7.40
2023-03-19T23:20:43.934Z,7.30
2023-03-19T23:22:44.230Z,7.60
2023-03-19T23:24:44.499Z,9.00
2023-03-19T23:26:44.731Z,7.70
2023-03-19T23:28:45.020Z,7.30
2023-03-19T23:30:45.311Z,7.80
2023-03-19T23:32:45.651Z,7.70
2023-03-19T23:34:59.170Z,7.40
2023-03-19T23:36:51.084Z,8.20
2023-03-19T23:38:51.656Z,7.70
2023-03-19T23:40:52.102Z,7.50
2023-03-19T23:42:52.380Z,7.30
2023-03-19T23:44:52.661Z,7.50
2023-03-19T23:46:52.902Z,7.30
2023-03-19T23:48:53.206Z,6.90
2023-03-19T23:50:53.842Z,6.90
2023-03-19T23:52:54.092Z,7.70
2023-03-19T23:54:54.539Z,6.90
2023-03-19T23:56:54.747Z,6.60
2023-03-19T23:58:55.026Z,6.60
